sensor_id;sensor_type;location;lat;lon;timestamp;P1;durP1;ratioP1;P2;durP2;ratioP2
40731;SDS011;26420;52.256;9.096;2024-03-08T00:02:12;20.17;;;10.37;;
40731;SDS011;26420;52.256;9.096;2024-03-08T00:07:15;22.63;;;10.00;;
40731;SDS011;26420;52.256;9.096;2024-03-08T00:12:17;24.57;;;10.37;;
40731;SDS011;26420;52.256;9.096;2024-03-08T00:17:19;26.83;;;11.07;;
40731;SDS011;26420;52.256;9.096;2024-03-08T00:22:21;19.90;;;9.83;;
40731;SDS011;26420;52.256;9.096;2024-03-08T00:27:23;19.50;;;9.90;;
40731;SDS011;26420;52.256;9.096;2024-03-08T00:32:26;25.33;;;11.23;;
40731;SDS011;26420;52.256;9.096;2024-03-08T00:42:38;24.33;;;10.53;;
40731;SDS011;26420;52.256;9.096;2024-03-08T00:47:42;22.17;;;11.37;;
40731;SDS011;26420;52.256;9.096;2024-03-08T00:52:45;18.80;;;9.77;;
40731;SDS011;26420;52.256;9.096;2024-03-08T00:57:47;16.20;;;9.03;;
40731;SDS011;26420;52.256;9.096;2024-03-08T01:02:49;18.50;;;10.03;;
40731;SDS011;26420;52.256;9.096;2024-03-08T01:07:52;20.07;;;9.70;;
40731;SDS011;26420;52.256;9.096;2024-03-08T01:12:54;20.27;;;9.37;;
40731;SDS011;26420;52.256;9.096;2024-03-08T01:17:58;23.93;;;9.80;;
40731;SDS011;26420;52.256;9.096;2024-03-08T01:23:00;27.23;;;10.67;;
40731;SDS011;26420;52.256;9.096;2024-03-08T01:28:02;20.63;;;10.63;;
40731;SDS011;26420;52.256;9.096;2024-03-08T01:33:05;23.97;;;10.83;;
40731;SDS011;26420;52.256;9.096;2024-03-08T01:38:07;19.13;;;9.30;;
40731;SDS011;26420;52.256;9.096;2024-03-08T01:43:22;23.57;;;9.63;;
40731;SDS011;26420;52.256;9.096;2024-03-08T01:53:30;14.80;;;8.00;;
40731;SDS011;26420;52.256;9.096;2024-03-08T01:58:32;22.17;;;10.10;;
40731;SDS011;26420;52.256;9.096;2024-03-08T02:03:35;27.03;;;10.70;;
40731;SDS011;26420;52.256;9.096;2024-03-08T02:08:37;24.60;;;10.30;;
40731;SDS011;26420;52.256;9.096;2024-03-08T02:13:39;21.23;;;9.90;;
40731;SDS011;26420;52.256;9.096;2024-03-08T02:18:41;22.47;;;10.10;;
40731;SDS011;26420;52.256;9.096;2024-03-08T02:23:44;26.73;;;10.70;;
40731;SDS011;26420;52.256;9.096;2024-03-08T02:28:46;20.37;;;9.17;;
40731;SDS011;26420;52.256;9.096;2024-03-08T02:33:48;22.23;;;11.63;;
40731;SDS011;26420;52.256;9.096;2024-03-08T02:38:51;22.90;;;10.37;;
40731;SDS011;26420;52.256;9.096;2024-03-08T02:43:53;22.57;;;9.97;;
40731;SDS011;26420;52.256;9.096;2024-03-08T02:48:56;25.57;;;9.40;;
40731;SDS011;26420;52.256;9.096;2024-03-08T02:53:58;24.47;;;10.20;;
40731;SDS011;26420;52.256;9.096;2024-03-08T02:59:01;24.77;;;10.10;;
40731;SDS011;26420;52.256;9.096;2024-03-08T03:04:03;22.13;;;10.17;;
40731;SDS011;26420;52.256;9.096;2024-03-08T03:09:05;22.00;;;10.57;;
40731;SDS011;26420;52.256;9.096;2024-03-08T03:14:08;26.87;;;11.20;;
40731;SDS011;26420;52.256;9.096;2024-03-08T03:19:10;18.10;;;8.73;;
40731;SDS011;26420;52.256;9.096;2024-03-08T03:24:12;26.40;;;10.77;;
40731;SDS011;26420;52.256;9.096;2024-03-08T03:29:17;23.67;;;10.23;;
40731;SDS011;26420;52.256;9.096;2024-03-08T03:34:19;23.83;;;10.37;;
40731;SDS011;26420;52.256;9.096;2024-03-08T03:39:21;24.47;;;10.60;;
40731;SDS011;26420;52.256;9.096;2024-03-08T03:44:24;25.47;;;10.47;;
40731;SDS011;26420;52.256;9.096;2024-03-08T03:49:26;22.70;;;10.73;;
40731;SDS011;26420;52.256;9.096;2024-03-08T03:54:30;25.40;;;11.23;;
40731;SDS011;26420;52.256;9.096;2024-03-08T03:59:32;29.93;;;10.40;;
40731;SDS011;26420;52.256;9.096;2024-03-08T04:04:34;28.37;;;10.47;;
40731;SDS011;26420;52.256;9.096;2024-03-08T04:09:36;31.17;;;11.60;;
40731;SDS011;26420;52.256;9.096;2024-03-08T04:14:40;23.57;;;10.73;;
40731;SDS011;26420;52.256;9.096;2024-03-08T04:19:42;24.73;;;11.43;;
40731;SDS011;26420;52.256;9.096;2024-03-08T04:24:45;31.53;;;12.13;;
40731;SDS011;26420;52.256;9.096;2024-03-08T04:29:47;25.57;;;11.90;;
40731;SDS011;26420;52.256;9.096;2024-03-08T04:34:49;23.90;;;11.70;;
40731;SDS011;26420;52.256;9.096;2024-03-08T04:39:51;30.93;;;11.87;;
40731;SDS011;26420;52.256;9.096;2024-03-08T04:44:54;26.53;;;11.20;;
40731;SDS011;26420;52.256;9.096;2024-03-08T04:49:56;25.60;;;11.63;;
40731;SDS011;26420;52.256;9.096;2024-03-08T04:54:59;31.03;;;12.83;;
40731;SDS011;26420;52.256;9.096;2024-03-08T05:00:02;33.53;;;13.33;;
40731;SDS011;26420;52.256;9.096;2024-03-08T05:05:11;28.53;;;12.27;;
40731;SDS011;26420;52.256;9.096;2024-03-08T05:10:14;32.60;;;12.67;;
40731;SDS011;26420;52.256;9.096;2024-03-08T05:15:18;29.53;;;13.20;;
40731;SDS011;26420;52.256;9.096;2024-03-08T05:20:21;30.30;;;13.53;;
40731;SDS011;26420;52.256;9.096;2024-03-08T05:25:23;30.10;;;12.47;;
40731;SDS011;26420;52.256;9.096;2024-03-08T05:30:26;28.43;;;12.73;;
40731;SDS011;26420;52.256;9.096;2024-03-08T05:35:28;29.03;;;11.97;;
40731;SDS011;26420;52.256;9.096;2024-03-08T05:40:30;29.73;;;12.67;;
40731;SDS011;26420;52.256;9.096;2024-03-08T05:45:35;36.27;;;14.00;;
40731;SDS011;26420;52.256;9.096;2024-03-08T05:50:37;39.67;;;13.37;;
40731;SDS011;26420;52.256;9.096;2024-03-08T05:55:40;30.53;;;13.23;;
40731;SDS011;26420;52.256;9.096;2024-03-08T06:00:42;33.63;;;12.17;;
40731;SDS011;26420;52.256;9.096;2024-03-08T06:05:44;29.90;;;11.60;;
40731;SDS011;26420;52.256;9.096;2024-03-08T06:10:46;28.77;;;12.33;;
40731;SDS011;26420;52.256;9.096;2024-03-08T06:15:53;21.00;;;9.88;;
40731;SDS011;26420;52.256;9.096;2024-03-08T06:20:56;28.67;;;12.57;;
40731;SDS011;26420;52.256;9.096;2024-03-08T06:25:58;29.97;;;12.50;;
40731;SDS011;26420;52.256;9.096;2024-03-08T06:31:01;33.47;;;12.80;;
40731;SDS011;26420;52.256;9.096;2024-03-08T06:36:04;30.27;;;12.40;;
40731;SDS011;26420;52.256;9.096;2024-03-08T06:41:06;31.50;;;12.17;;
40731;SDS011;26420;52.256;9.096;2024-03-08T06:46:08;27.50;;;13.03;;
40731;SDS011;26420;52.256;9.096;2024-03-08T06:51:11;24.13;;;11.57;;
40731;SDS011;26420;52.256;9.096;2024-03-08T06:56:13;23.03;;;12.20;;
40731;SDS011;26420;52.256;9.096;2024-03-08T07:01:16;25.03;;;12.27;;
40731;SDS011;26420;52.256;9.096;2024-03-08T07:06:18;28.07;;;12.90;;
40731;SDS011;26420;52.256;9.096;2024-03-08T07:11:21;33.73;;;12.10;;
40731;SDS011;26420;52.256;9.096;2024-03-08T07:16:23;34.43;;;12.97;;
40731;SDS011;26420;52.256;9.096;2024-03-08T07:21:26;21.93;;;12.13;;
40731;SDS011;26420;52.256;9.096;2024-03-08T07:26:29;28.73;;;11.93;;
40731;SDS011;26420;52.256;9.096;2024-03-08T07:31:31;30.83;;;13.30;;
40731;SDS011;26420;52.256;9.096;2024-03-08T07:36:42;28.85;;;12.90;;
40731;SDS011;26420;52.256;9.096;2024-03-08T07:41:44;28.30;;;11.50;;
40731;SDS011;26420;52.256;9.096;2024-03-08T07:46:47;27.70;;;11.65;;
40731;SDS011;26420;52.256;9.096;2024-03-08T07:51:49;26.42;;;12.77;;
40731;SDS011;26420;52.256;9.096;2024-03-08T07:56:51;30.33;;;12.52;;
40731;SDS011;26420;52.256;9.096;2024-03-08T08:01:53;25.52;;;11.77;;
40731;SDS011;26420;52.256;9.096;2024-03-08T08:06:56;26.42;;;12.05;;
40731;SDS011;26420;52.256;9.096;2024-03-08T08:11:58;29.80;;;12.93;;
40731;SDS011;26420;52.256;9.096;2024-03-08T08:17:00;24.05;;;12.13;;
40731;SDS011;26420;52.256;9.096;2024-03-08T08:22:05;23.75;;;11.55;;
40731;SDS011;26420;52.256;9.096;2024-03-08T08:27:10;24.40;;;11.57;;
40731;SDS011;26420;52.256;9.096;2024-03-08T08:32:13;28.60;;;12.10;;
40731;SDS011;26420;52.256;9.096;2024-03-08T08:37:15;21.08;;;10.93;;
40731;SDS011;26420;52.256;9.096;2024-03-08T08:42:20;28.75;;;11.60;;
40731;SDS011;26420;52.256;9.096;2024-03-08T08:47:23;23.48;;;11.65;;
40731;SDS011;26420;52.256;9.096;2024-03-08T08:52:25;24.98;;;12.18;;
40731;SDS011;26420;52.256;9.096;2024-03-08T08:57:27;18.10;;;10.25;;
40731;SDS011;26420;52.256;9.096;2024-03-08T09:02:29;24.52;;;11.00;;
40731;SDS011;26420;52.256;9.096;2024-03-08T09:07:32;22.08;;;11.45;;
40731;SDS011;26420;52.256;9.096;2024-03-08T09:12:35;21.10;;;12.52;;
40731;SDS011;26420;52.256;9.096;2024-03-08T09:17:37;22.52;;;10.75;;
40731;SDS011;26420;52.256;9.096;2024-03-08T09:22:43;20.45;;;10.65;;
40731;SDS011;26420;52.256;9.096;2024-03-08T09:27:47;22.92;;;11.43;;
40731;SDS011;26420;52.256;9.096;2024-03-08T09:32:49;22.67;;;11.38;;
40731;SDS011;26420;52.256;9.096;2024-03-08T09:37:52;18.67;;;9.35;;
40731;SDS011;26420;52.256;9.096;2024-03-08T09:42:55;20.65;;;10.35;;
40731;SDS011;26420;52.256;9.096;2024-03-08T09:47:58;18.55;;;9.60;;
40731;SDS011;26420;52.256;9.096;2024-03-08T09:53:00;18.83;;;9.23;;
40731;SDS011;26420;52.256;9.096;2024-03-08T09:58:05;18.55;;;9.75;;
40731;SDS011;26420;52.256;9.096;2024-03-08T10:03:26;21.15;;;9.70;;
40731;SDS011;26420;52.256;9.096;2024-03-08T10:08:29;20.20;;;10.32;;
40731;SDS011;26420;52.256;9.096;2024-03-08T10:13:31;19.58;;;9.25;;
40731;SDS011;26420;52.256;9.096;2024-03-08T10:18:34;19.70;;;9.77;;
40731;SDS011;26420;52.256;9.096;2024-03-08T10:23:36;15.23;;;8.68;;
40731;SDS011;26420;52.256;9.096;2024-03-08T10:28:38;19.30;;;9.27;;
40731;SDS011;26420;52.256;9.096;2024-03-08T10:33:40;26.98;;;10.30;;
40731;SDS011;26420;52.256;9.096;2024-03-08T10:38:43;16.83;;;8.68;;
40731;SDS011;26420;52.256;9.096;2024-03-08T10:49:11;16.58;;;8.43;;
40731;SDS011;26420;52.256;9.096;2024-03-08T10:54:14;17.55;;;8.55;;
40731;SDS011;26420;52.256;9.096;2024-03-08T10:59:17;14.13;;;9.30;;
40731;SDS011;26420;52.256;9.096;2024-03-08T11:04:20;20.60;;;9.20;;
40731;SDS011;26420;52.256;9.096;2024-03-08T11:09:30;16.48;;;8.18;;
40731;SDS011;26420;52.256;9.096;2024-03-08T11:14:42;13.77;;;8.68;;
40731;SDS011;26420;52.256;9.096;2024-03-08T11:19:45;16.23;;;9.88;;
40731;SDS011;26420;52.256;9.096;2024-03-08T11:24:48;13.18;;;8.40;;
40731;SDS011;26420;52.256;9.096;2024-03-08T11:30:03;17.27;;;9.48;;
40731;SDS011;26420;52.256;9.096;2024-03-08T11:35:25;18.52;;;8.45;;
40731;SDS011;26420;52.256;9.096;2024-03-08T11:40:27;14.32;;;8.13;;
40731;SDS011;26420;52.256;9.096;2024-03-08T11:45:29;18.23;;;9.52;;
40731;SDS011;26420;52.256;9.096;2024-03-08T11:50:31;15.90;;;9.32;;
40731;SDS011;26420;52.256;9.096;2024-03-08T11:55:34;13.95;;;8.70;;
40731;SDS011;26420;52.256;9.096;2024-03-08T12:00:36;17.30;;;10.13;;
40731;SDS011;26420;52.256;9.096;2024-03-08T12:05:39;15.77;;;8.68;;
40731;SDS011;26420;52.256;9.096;2024-03-08T12:10:41;16.25;;;9.07;;
40731;SDS011;26420;52.256;9.096;2024-03-08T12:15:44;13.70;;;8.95;;
40731;SDS011;26420;52.256;9.096;2024-03-08T12:20:46;14.88;;;8.95;;
40731;SDS011;26420;52.256;9.096;2024-03-08T12:25:51;12.65;;;9.13;;
40731;SDS011;26420;52.256;9.096;2024-03-08T12:30:54;14.55;;;8.60;;
40731;SDS011;26420;52.256;9.096;2024-03-08T12:35:58;14.45;;;8.95;;
40731;SDS011;26420;52.256;9.096;2024-03-08T12:41:00;15.10;;;9.60;;
40731;SDS011;26420;52.256;9.096;2024-03-08T12:46:03;15.38;;;9.32;;
40731;SDS011;26420;52.256;9.096;2024-03-08T12:51:07;15.95;;;8.70;;
40731;SDS011;26420;52.256;9.096;2024-03-08T12:56:10;14.10;;;8.27;;
40731;SDS011;26420;52.256;9.096;2024-03-08T13:01:12;12.48;;;8.55;;
40731;SDS011;26420;52.256;9.096;2024-03-08T13:06:15;15.70;;;9.00;;
40731;SDS011;26420;52.256;9.096;2024-03-08T13:11:17;14.20;;;9.07;;
40731;SDS011;26420;52.256;9.096;2024-03-08T13:16:20;15.20;;;9.32;;
40731;SDS011;26420;52.256;9.096;2024-03-08T13:21:22;16.60;;;10.00;;
40731;SDS011;26420;52.256;9.096;2024-03-08T13:26:25;16.65;;;10.07;;
40731;SDS011;26420;52.256;9.096;2024-03-08T13:31:34;13.52;;;9.60;;
40731;SDS011;26420;52.256;9.096;2024-03-08T13:36:37;15.35;;;9.13;;
40731;SDS011;26420;52.256;9.096;2024-03-08T13:41:45;17.45;;;9.73;;
40731;SDS011;26420;52.256;9.096;2024-03-08T13:46:48;17.60;;;10.60;;
40731;SDS011;26420;52.256;9.096;2024-03-08T13:56:57;15.90;;;10.10;;
40731;SDS011;26420;52.256;9.096;2024-03-08T14:02:00;15.80;;;9.95;;
40731;SDS011;26420;52.256;9.096;2024-03-08T14:07:03;17.13;;;9.30;;
40731;SDS011;26420;52.256;9.096;2024-03-08T14:12:06;15.63;;;8.38;;
40731;SDS011;26420;52.256;9.096;2024-03-08T14:17:08;18.83;;;9.80;;
40731;SDS011;26420;52.256;9.096;2024-03-08T14:22:12;15.02;;;9.85;;
40731;SDS011;26420;52.256;9.096;2024-03-08T14:27:16;17.00;;;10.45;;
40731;SDS011;26420;52.256;9.096;2024-03-08T14:32:19;16.60;;;9.35;;
40731;SDS011;26420;52.256;9.096;2024-03-08T14:37:24;18.08;;;10.73;;
40731;SDS011;26420;52.256;9.096;2024-03-08T14:42:30;17.87;;;8.93;;
40731;SDS011;26420;52.256;9.096;2024-03-08T14:47:32;19.05;;;10.07;;
40731;SDS011;26420;52.256;9.096;2024-03-08T14:52:36;19.65;;;11.02;;
40731;SDS011;26420;52.256;9.096;2024-03-08T14:57:41;17.20;;;9.95;;
40731;SDS011;26420;52.256;9.096;2024-03-08T15:02:43;14.07;;;8.68;;
40731;SDS011;26420;52.256;9.096;2024-03-08T15:07:45;18.50;;;9.73;;
40731;SDS011;26420;52.256;9.096;2024-03-08T15:12:48;19.60;;;10.52;;
40731;SDS011;26420;52.256;9.096;2024-03-08T15:17:52;20.05;;;9.90;;
40731;SDS011;26420;52.256;9.096;2024-03-08T15:22:55;18.88;;;11.43;;
40731;SDS011;26420;52.256;9.096;2024-03-08T15:28:00;20.38;;;10.90;;
40731;SDS011;26420;52.256;9.096;2024-03-08T15:33:05;17.30;;;9.30;;
40731;SDS011;26420;52.256;9.096;2024-03-08T15:38:11;22.42;;;10.00;;
40731;SDS011;26420;52.256;9.096;2024-03-08T15:43:14;13.07;;;6.38;;
40731;SDS011;26420;52.256;9.096;2024-03-08T15:48:17;14.25;;;8.50;;
40731;SDS011;26420;52.256;9.096;2024-03-08T15:53:19;18.10;;;9.88;;
40731;SDS011;26420;52.256;9.096;2024-03-08T15:58:21;17.95;;;9.25;;
40731;SDS011;26420;52.256;9.096;2024-03-08T16:03:24;20.33;;;10.10;;
40731;SDS011;26420;52.256;9.096;2024-03-08T16:08:26;19.73;;;9.82;;
40731;SDS011;26420;52.256;9.096;2024-03-08T16:13:28;17.70;;;9.95;;
40731;SDS011;26420;52.256;9.096;2024-03-08T16:18:31;15.40;;;9.00;;
40731;SDS011;26420;52.256;9.096;2024-03-08T16:23:35;18.90;;;10.57;;
40731;SDS011;26420;52.256;9.096;2024-03-08T16:28:39;21.52;;;9.82;;
40731;SDS011;26420;52.256;9.096;2024-03-08T16:33:43;18.92;;;11.20;;
40731;SDS011;26420;52.256;9.096;2024-03-08T16:38:46;26.23;;;10.93;;
40731;SDS011;26420;52.256;9.096;2024-03-08T16:43:49;23.92;;;12.07;;
40731;SDS011;26420;52.256;9.096;2024-03-08T16:48:52;21.73;;;9.32;;
40731;SDS011;26420;52.256;9.096;2024-03-08T16:53:55;19.10;;;8.73;;
40731;SDS011;26420;52.256;9.096;2024-03-08T16:58:57;18.40;;;10.48;;
40731;SDS011;26420;52.256;9.096;2024-03-08T17:03:59;25.77;;;9.90;;
40731;SDS011;26420;52.256;9.096;2024-03-08T17:09:03;20.02;;;8.68;;
40731;SDS011;26420;52.256;9.096;2024-03-08T17:14:13;17.60;;;9.52;;
40731;SDS011;26420;52.256;9.096;2024-03-08T17:19:15;19.50;;;10.45;;
40731;SDS011;26420;52.256;9.096;2024-03-08T17:24:19;22.60;;;10.82;;
40731;SDS011;26420;52.256;9.096;2024-03-08T17:29:24;21.80;;;9.57;;
40731;SDS011;26420;52.256;9.096;2024-03-08T17:34:26;22.25;;;10.35;;
40731;SDS011;26420;52.256;9.096;2024-03-08T17:39:29;25.70;;;10.50;;
40731;SDS011;26420;52.256;9.096;2024-03-08T17:44:31;24.08;;;11.32;;
40731;SDS011;26420;52.256;9.096;2024-03-08T17:49:36;19.65;;;10.55;;
40731;SDS011;26420;52.256;9.096;2024-03-08T17:54:41;23.88;;;11.80;;
40731;SDS011;26420;52.256;9.096;2024-03-08T17:59:43;26.42;;;12.25;;
40731;SDS011;26420;52.256;9.096;2024-03-08T18:04:47;25.92;;;10.35;;
40731;SDS011;26420;52.256;9.096;2024-03-08T18:09:50;21.38;;;10.05;;
40731;SDS011;26420;52.256;9.096;2024-03-08T18:14:52;19.05;;;7.90;;
40731;SDS011;26420;52.256;9.096;2024-03-08T18:19:54;17.17;;;10.00;;
40731;SDS011;26420;52.256;9.096;2024-03-08T18:24:58;23.98;;;11.88;;
40731;SDS011;26420;52.256;9.096;2024-03-08T18:30:00;24.08;;;11.40;;
40731;SDS011;26420;52.256;9.096;2024-03-08T18:35:05;20.38;;;10.32;;
40731;SDS011;26420;52.256;9.096;2024-03-08T18:40:08;20.40;;;11.25;;
40731;SDS011;26420;52.256;9.096;2024-03-08T18:45:14;23.52;;;9.07;;
40731;SDS011;26420;52.256;9.096;2024-03-08T18:50:18;29.58;;;12.32;;
40731;SDS011;26420;52.256;9.096;2024-03-08T18:55:21;27.10;;;10.48;;
40731;SDS011;26420;52.256;9.096;2024-03-08T19:00:29;20.55;;;10.55;;
40731;SDS011;26420;52.256;9.096;2024-03-08T19:05:38;21.98;;;9.25;;
40731;SDS011;26420;52.256;9.096;2024-03-08T19:10:42;26.77;;;11.15;;
40731;SDS011;26420;52.256;9.096;2024-03-08T19:15:45;23.25;;;10.77;;
40731;SDS011;26420;52.256;9.096;2024-03-08T19:20:48;23.55;;;10.52;;
40731;SDS011;26420;52.256;9.096;2024-03-08T19:25:50;27.55;;;9.50;;
40731;SDS011;26420;52.256;9.096;2024-03-08T19:30:54;29.58;;;11.10;;
40731;SDS011;26420;52.256;9.096;2024-03-08T19:35:56;25.40;;;10.38;;
40731;SDS011;26420;52.256;9.096;2024-03-08T19:41:01;21.17;;;10.52;;
40731;SDS011;26420;52.256;9.096;2024-03-08T19:46:04;26.17;;;9.88;;
40731;SDS011;26420;52.256;9.096;2024-03-08T19:51:10;23.02;;;10.32;;
40731;SDS011;26420;52.256;9.096;2024-03-08T19:56:14;22.63;;;9.00;;
40731;SDS011;26420;52.256;9.096;2024-03-08T20:01:16;18.95;;;9.73;;
40731;SDS011;26420;52.256;9.096;2024-03-08T20:06:18;22.20;;;9.02;;
40731;SDS011;26420;52.256;9.096;2024-03-08T20:11:20;20.33;;;9.60;;
40731;SDS011;26420;52.256;9.096;2024-03-08T20:16:22;18.48;;;8.35;;
40731;SDS011;26420;52.256;9.096;2024-03-08T20:21:24;17.38;;;7.93;;
40731;SDS011;26420;52.256;9.096;2024-03-08T20:26:27;18.58;;;8.05;;
40731;SDS011;26420;52.256;9.096;2024-03-08T20:31:29;18.35;;;7.70;;
40731;SDS011;26420;52.256;9.096;2024-03-08T20:36:33;22.25;;;8.48;;
40731;SDS011;26420;52.256;9.096;2024-03-08T20:41:36;14.02;;;7.65;;
40731;SDS011;26420;52.256;9.096;2024-03-08T20:46:41;14.05;;;8.13;;
40731;SDS011;26420;52.256;9.096;2024-03-08T20:51:43;17.58;;;8.60;;
40731;SDS011;26420;52.256;9.096;2024-03-08T20:56:45;14.30;;;8.35;;
40731;SDS011;26420;52.256;9.096;2024-03-08T21:01:47;20.60;;;9.05;;
40731;SDS011;26420;52.256;9.096;2024-03-08T21:06:49;18.85;;;6.85;;
40731;SDS011;26420;52.256;9.096;2024-03-08T21:11:52;14.32;;;7.15;;
40731;SDS011;26420;52.256;9.096;2024-03-08T21:16:54;18.70;;;7.50;;
40731;SDS011;26420;52.256;9.096;2024-03-08T21:21:56;15.18;;;7.13;;
40731;SDS011;26420;52.256;9.096;2024-03-08T21:26:58;14.95;;;7.55;;
40731;SDS011;26420;52.256;9.096;2024-03-08T21:32:00;13.82;;;7.70;;
40731;SDS011;26420;52.256;9.096;2024-03-08T21:37:08;15.48;;;8.05;;
40731;SDS011;26420;52.256;9.096;2024-03-08T21:42:11;16.25;;;7.53;;
40731;SDS011;26420;52.256;9.096;2024-03-08T21:47:15;18.13;;;7.25;;
40731;SDS011;26420;52.256;9.096;2024-03-08T21:52:20;21.15;;;8.52;;
40731;SDS011;26420;52.256;9.096;2024-03-08T21:57:22;21.00;;;8.15;;
40731;SDS011;26420;52.256;9.096;2024-03-08T22:02:24;14.65;;;7.55;;
40731;SDS011;26420;52.256;9.096;2024-03-08T22:07:26;15.38;;;7.68;;
40731;SDS011;26420;52.256;9.096;2024-03-08T22:12:28;16.45;;;7.40;;
40731;SDS011;26420;52.256;9.096;2024-03-08T22:17:31;18.42;;;7.22;;
40731;SDS011;26420;52.256;9.096;2024-03-08T22:22:33;12.98;;;6.97;;
40731;SDS011;26420;52.256;9.096;2024-03-08T22:27:37;16.55;;;7.53;;
40731;SDS011;26420;52.256;9.096;2024-03-08T22:32:39;17.55;;;8.30;;
40731;SDS011;26420;52.256;9.096;2024-03-08T22:37:42;18.73;;;8.20;;
40731;SDS011;26420;52.256;9.096;2024-03-08T22:42:44;17.95;;;7.38;;
40731;SDS011;26420;52.256;9.096;2024-03-08T22:47:47;16.83;;;7.68;;
40731;SDS011;26420;52.256;9.096;2024-03-08T22:52:50;16.45;;;7.78;;
40731;SDS011;26420;52.256;9.096;2024-03-08T22:57:52;18.30;;;8.05;;
40731;SDS011;26420;52.256;9.096;2024-03-08T23:02:55;22.70;;;7.65;;
40731;SDS011;26420;52.256;9.096;2024-03-08T23:07:59;19.10;;;8.95;;
40731;SDS011;26420;52.256;9.096;2024-03-08T23:13:02;17.65;;;8.82;;
40731;SDS011;26420;52.256;9.096;2024-03-08T23:18:05;18.00;;;8.88;;
40731;SDS011;26420;52.256;9.096;2024-03-08T23:23:11;21.50;;;8.70;;
40731;SDS011;26420;52.256;9.096;2024-03-08T23:28:14;19.70;;;8.52;;
40731;SDS011;26420;52.256;9.096;2024-03-08T23:33:16;20.40;;;8.43;;
40731;SDS011;26420;52.256;9.096;2024-03-08T23:38:19;18.38;;;8.65;;
40731;SDS011;26420;52.256;9.096;2024-03-08T23:43:21;20.17;;;8.32;;
40731;SDS011;26420;52.256;9.096;2024-03-08T23:48:24;19.10;;;8.13;;
40731;SDS011;26420;52.256;9.096;2024-03-08T23:53:27;17.70;;;9.18;;
40731;SDS011;26420;52.256;9.096;2024-03-08T23:58:29;18.80;;;7.75;;
